sensor_id;sensor_type;location;lat;lon;timestamp;P1;durP1;ratioP1;P2;durP2;ratioP2
68886;SDS011;55925;51.764;6.402;2023-01-05T00:01:17;19.60;;;4.03;;
68886;SDS011;55925;51.764;6.402;2023-01-05T00:03:43;19.73;;;3.47;;
68886;SDS011;55925;51.764;6.402;2023-01-05T00:06:09;27.05;;;4.28;;
68886;SDS011;55925;51.764;6.402;2023-01-05T00:08:36;19.33;;;4.35;;
68886;SDS011;55925;51.764;6.402;2023-01-05T00:11:02;24.58;;;4.38;;
68886;SDS011;55925;51.764;6.402;2023-01-05T00:13:47;22.67;;;4.13;;
68886;SDS011;55925;51.764;6.402;2023-01-05T00:16:32;19.63;;;2.90;;
68886;SDS011;55925;51.764;6.402;2023-01-05T00:19:16;18.95;;;4.00;;
68886;SDS011;55925;51.764;6.402;2023-01-05T00:22:01;21.73;;;3.70;;
68886;SDS011;55925;51.764;6.402;2023-01-05T00:24:45;20.80;;;3.72;;
68886;SDS011;55925;51.764;6.402;2023-01-05T00:27:11;27.80;;;4.35;;
68886;SDS011;55925;51.764;6.402;2023-01-05T00:29:37;18.55;;;4.35;;
68886;SDS011;55925;51.764;6.402;2023-01-05T00:32:03;23.60;;;4.05;;
68886;SDS011;55925;51.764;6.402;2023-01-05T00:34:29;25.38;;;4.25;;
68886;SDS011;55925;51.764;6.402;2023-01-05T00:36:55;20.50;;;4.63;;
68886;SDS011;55925;51.764;6.402;2023-01-05T00:39:21;22.02;;;4.20;;
68886;SDS011;55925;51.764;6.402;2023-01-05T00:41:47;23.02;;;4.72;;
68886;SDS011;55925;51.764;6.402;2023-01-05T00:44:13;27.63;;;4.30;;
68886;SDS011;55925;51.764;6.402;2023-01-05T00:46:39;21.40;;;3.42;;
68886;SDS011;55925;51.764;6.402;2023-01-05T00:49:05;23.08;;;3.88;;
68886;SDS011;55925;51.764;6.402;2023-01-05T00:51:31;22.90;;;4.28;;
68886;SDS011;55925;51.764;6.402;2023-01-05T00:53:57;17.67;;;3.50;;
68886;SDS011;55925;51.764;6.402;2023-01-05T00:56:23;19.38;;;4.18;;
68886;SDS011;55925;51.764;6.402;2023-01-05T00:58:51;20.50;;;4.28;;
68886;SDS011;55925;51.764;6.402;2023-01-05T01:01:18;18.75;;;4.13;;
68886;SDS011;55925;51.764;6.402;2023-01-05T01:03:44;19.15;;;3.60;;
68886;SDS011;55925;51.764;6.402;2023-01-05T01:06:10;18.60;;;4.00;;
68886;SDS011;55925;51.764;6.402;2023-01-05T01:08:37;18.80;;;3.58;;
68886;SDS011;55925;51.764;6.402;2023-01-05T01:11:06;20.10;;;4.32;;
68886;SDS011;55925;51.764;6.402;2023-01-05T01:13:32;23.42;;;3.90;;
68886;SDS011;55925;51.764;6.402;2023-01-05T01:16:04;25.70;;;5.10;;
68886;SDS011;55925;51.764;6.402;2023-01-05T01:20:56;26.55;;;4.60;;
68886;SDS011;55925;51.764;6.402;2023-01-05T01:23:22;21.17;;;3.35;;
68886;SDS011;55925;51.764;6.402;2023-01-05T01:25:48;19.85;;;3.63;;
68886;SDS011;55925;51.764;6.402;2023-01-05T01:28:14;20.25;;;4.25;;
68886;SDS011;55925;51.764;6.402;2023-01-05T01:30:40;24.33;;;5.55;;
68886;SDS011;55925;51.764;6.402;2023-01-05T01:33:06;27.00;;;4.65;;
68886;SDS011;55925;51.764;6.402;2023-01-05T01:35:32;18.33;;;4.07;;
68886;SDS011;55925;51.764;6.402;2023-01-05T01:37:58;23.67;;;4.07;;
68886;SDS011;55925;51.764;6.402;2023-01-05T01:40:24;18.55;;;3.78;;
68886;SDS011;55925;51.764;6.402;2023-01-05T01:42:50;19.13;;;3.33;;
68886;SDS011;55925;51.764;6.402;2023-01-05T01:45:18;20.83;;;3.90;;
68886;SDS011;55925;51.764;6.402;2023-01-05T01:47:50;20.95;;;3.47;;
68886;SDS011;55925;51.764;6.402;2023-01-05T01:50:33;18.52;;;3.83;;
68886;SDS011;55925;51.764;6.402;2023-01-05T01:53:05;20.77;;;3.80;;
68886;SDS011;55925;51.764;6.402;2023-01-05T01:55:32;19.70;;;4.00;;
68886;SDS011;55925;51.764;6.402;2023-01-05T01:57:59;22.80;;;4.93;;
68886;SDS011;55925;51.764;6.402;2023-01-05T02:00:26;18.05;;;3.75;;
68886;SDS011;55925;51.764;6.402;2023-01-05T02:02:52;15.68;;;3.65;;
68886;SDS011;55925;51.764;6.402;2023-01-05T02:05:20;29.90;;;4.55;;
68886;SDS011;55925;51.764;6.402;2023-01-05T02:07:47;17.98;;;3.83;;
68886;SDS011;55925;51.764;6.402;2023-01-05T02:10:14;14.25;;;3.70;;
68886;SDS011;55925;51.764;6.402;2023-01-05T02:36:27;20.45;;;4.72;;
68886;SDS011;55925;51.764;6.402;2023-01-05T02:41:34;20.95;;;3.47;;
68886;SDS011;55925;51.764;6.402;2023-01-05T02:44:01;21.08;;;4.40;;
68886;SDS011;55925;51.764;6.402;2023-01-05T02:46:27;25.20;;;3.88;;
68886;SDS011;55925;51.764;6.402;2023-01-05T02:48:53;22.42;;;4.50;;
68886;SDS011;55925;51.764;6.402;2023-01-05T02:51:23;22.17;;;3.90;;
68886;SDS011;55925;51.764;6.402;2023-01-05T02:54:33;25.27;;;4.30;;
68886;SDS011;55925;51.764;6.402;2023-01-05T02:56:41;23.13;;;4.03;;
68886;SDS011;55925;51.764;6.402;2023-01-05T02:59:13;22.23;;;3.65;;
68886;SDS011;55925;51.764;6.402;2023-01-05T03:01:42;21.58;;;4.90;;
68886;SDS011;55925;51.764;6.402;2023-01-05T03:04:29;13.70;;;3.67;;
68886;SDS011;55925;51.764;6.402;2023-01-05T03:06:58;26.98;;;5.07;;
68886;SDS011;55925;51.764;6.402;2023-01-05T03:09:26;18.38;;;3.08;;
68886;SDS011;55925;51.764;6.402;2023-01-05T03:11:57;29.15;;;5.05;;
68886;SDS011;55925;51.764;6.402;2023-01-05T03:14:45;25.15;;;4.30;;
68886;SDS011;55925;51.764;6.402;2023-01-05T03:17:13;20.52;;;4.63;;
68886;SDS011;55925;51.764;6.402;2023-01-05T03:19:39;17.13;;;3.92;;
68886;SDS011;55925;51.764;6.402;2023-01-05T03:22:10;19.80;;;4.35;;
68886;SDS011;55925;51.764;6.402;2023-01-05T03:24:55;24.17;;;4.43;;
68886;SDS011;55925;51.764;6.402;2023-01-05T03:27:40;29.48;;;5.25;;
68886;SDS011;55925;51.764;6.402;2023-01-05T03:30:28;22.75;;;4.32;;
68886;SDS011;55925;51.764;6.402;2023-01-05T03:36:22;27.05;;;5.20;;
68886;SDS011;55925;51.764;6.402;2023-01-05T03:38:48;17.35;;;3.80;;
68886;SDS011;55925;51.764;6.402;2023-01-05T03:41:16;21.95;;;4.13;;
68886;SDS011;55925;51.764;6.402;2023-01-05T03:43:43;21.45;;;3.92;;
68886;SDS011;55925;51.764;6.402;2023-01-05T03:46:13;22.75;;;4.05;;
68886;SDS011;55925;51.764;6.402;2023-01-05T03:48:41;23.80;;;4.28;;
68886;SDS011;55925;51.764;6.402;2023-01-05T03:51:07;20.67;;;4.00;;
68886;SDS011;55925;51.764;6.402;2023-01-05T03:53:33;18.75;;;3.90;;
68886;SDS011;55925;51.764;6.402;2023-01-05T03:55:59;20.25;;;5.13;;
68886;SDS011;55925;51.764;6.402;2023-01-05T03:58:25;18.17;;;4.40;;
68886;SDS011;55925;51.764;6.402;2023-01-05T04:00:51;23.25;;;5.35;;
68886;SDS011;55925;51.764;6.402;2023-01-05T04:03:17;23.83;;;3.70;;
68886;SDS011;55925;51.764;6.402;2023-01-05T04:05:43;22.45;;;4.47;;
68886;SDS011;55925;51.764;6.402;2023-01-05T04:08:09;20.48;;;4.05;;
68886;SDS011;55925;51.764;6.402;2023-01-05T04:10:35;24.15;;;3.83;;
68886;SDS011;55925;51.764;6.402;2023-01-05T04:13:01;28.25;;;4.00;;
68886;SDS011;55925;51.764;6.402;2023-01-05T04:15:27;26.40;;;4.78;;
68886;SDS011;55925;51.764;6.402;2023-01-05T04:17:53;17.77;;;4.32;;
68886;SDS011;55925;51.764;6.402;2023-01-05T04:20:19;18.48;;;3.40;;
68886;SDS011;55925;51.764;6.402;2023-01-05T04:22:45;19.48;;;3.70;;
68886;SDS011;55925;51.764;6.402;2023-01-05T04:25:11;27.70;;;3.88;;
68886;SDS011;55925;51.764;6.402;2023-01-05T04:27:37;23.88;;;4.70;;
68886;SDS011;55925;51.764;6.402;2023-01-05T04:30:03;26.88;;;4.82;;
68886;SDS011;55925;51.764;6.402;2023-01-05T04:32:30;21.50;;;3.67;;
68886;SDS011;55925;51.764;6.402;2023-01-05T04:34:56;15.40;;;3.90;;
68886;SDS011;55925;51.764;6.402;2023-01-05T04:37:22;27.23;;;4.93;;
68886;SDS011;55925;51.764;6.402;2023-01-05T04:39:48;24.67;;;3.90;;
68886;SDS011;55925;51.764;6.402;2023-01-05T04:42:14;12.30;;;3.65;;
68886;SDS011;55925;51.764;6.402;2023-01-05T04:44:40;14.77;;;3.80;;
68886;SDS011;55925;51.764;6.402;2023-01-05T04:47:06;15.82;;;3.92;;
68886;SDS011;55925;51.764;6.402;2023-01-05T04:49:32;25.42;;;4.13;;
68886;SDS011;55925;51.764;6.402;2023-01-05T04:51:58;23.25;;;4.05;;
68886;SDS011;55925;51.764;6.402;2023-01-05T04:54:24;21.55;;;4.15;;
68886;SDS011;55925;51.764;6.402;2023-01-05T04:56:50;21.33;;;3.85;;
68886;SDS011;55925;51.764;6.402;2023-01-05T04:59:16;17.48;;;3.72;;
68886;SDS011;55925;51.764;6.402;2023-01-05T05:01:42;28.02;;;4.63;;
68886;SDS011;55925;51.764;6.402;2023-01-05T05:04:08;24.08;;;4.43;;
68886;SDS011;55925;51.764;6.402;2023-01-05T05:06:34;26.20;;;4.63;;
68886;SDS011;55925;51.764;6.402;2023-01-05T05:09:00;17.10;;;4.03;;
68886;SDS011;55925;51.764;6.402;2023-01-05T05:11:26;23.00;;;4.28;;
68886;SDS011;55925;51.764;6.402;2023-01-05T05:13:51;25.23;;;4.85;;
68886;SDS011;55925;51.764;6.402;2023-01-05T05:16:17;24.77;;;4.10;;
68886;SDS011;55925;51.764;6.402;2023-01-05T05:18:43;22.83;;;4.30;;
68886;SDS011;55925;51.764;6.402;2023-01-05T05:21:09;17.95;;;4.22;;
68886;SDS011;55925;51.764;6.402;2023-01-05T05:23:35;22.45;;;4.00;;
68886;SDS011;55925;51.764;6.402;2023-01-05T05:26:01;20.30;;;4.50;;
68886;SDS011;55925;51.764;6.402;2023-01-05T05:28:27;21.48;;;3.67;;
68886;SDS011;55925;51.764;6.402;2023-01-05T05:30:54;20.92;;;4.05;;
68886;SDS011;55925;51.764;6.402;2023-01-05T05:33:20;19.65;;;3.92;;
68886;SDS011;55925;51.764;6.402;2023-01-05T05:35:46;17.48;;;4.20;;
68886;SDS011;55925;51.764;6.402;2023-01-05T05:38:12;22.33;;;4.88;;
68886;SDS011;55925;51.764;6.402;2023-01-05T05:40:38;21.38;;;4.75;;
68886;SDS011;55925;51.764;6.402;2023-01-05T05:43:04;21.17;;;3.45;;
68886;SDS011;55925;51.764;6.402;2023-01-05T05:45:30;25.80;;;5.00;;
68886;SDS011;55925;51.764;6.402;2023-01-05T05:47:56;25.00;;;4.32;;
68886;SDS011;55925;51.764;6.402;2023-01-05T05:50:25;23.40;;;4.60;;
68886;SDS011;55925;51.764;6.402;2023-01-05T05:52:51;24.58;;;3.95;;
68886;SDS011;55925;51.764;6.402;2023-01-05T05:55:17;18.75;;;3.83;;
68886;SDS011;55925;51.764;6.402;2023-01-05T05:57:43;21.95;;;5.28;;
68886;SDS011;55925;51.764;6.402;2023-01-05T06:00:09;18.42;;;3.70;;
68886;SDS011;55925;51.764;6.402;2023-01-05T06:02:35;17.02;;;3.72;;
68886;SDS011;55925;51.764;6.402;2023-01-05T06:05:01;17.42;;;4.10;;
68886;SDS011;55925;51.764;6.402;2023-01-05T06:07:27;25.52;;;4.82;;
68886;SDS011;55925;51.764;6.402;2023-01-05T06:09:53;16.38;;;3.95;;
68886;SDS011;55925;51.764;6.402;2023-01-05T06:12:19;23.73;;;4.22;;
68886;SDS011;55925;51.764;6.402;2023-01-05T06:14:45;17.27;;;4.63;;
68886;SDS011;55925;51.764;6.402;2023-01-05T06:17:11;22.20;;;4.28;;
68886;SDS011;55925;51.764;6.402;2023-01-05T06:19:37;22.10;;;4.50;;
68886;SDS011;55925;51.764;6.402;2023-01-05T06:22:03;16.13;;;3.92;;
68886;SDS011;55925;51.764;6.402;2023-01-05T06:24:29;27.38;;;4.45;;
68886;SDS011;55925;51.764;6.402;2023-01-05T06:26:55;25.65;;;4.55;;
68886;SDS011;55925;51.764;6.402;2023-01-05T06:29:21;25.92;;;4.95;;
68886;SDS011;55925;51.764;6.402;2023-01-05T06:31:47;24.88;;;4.90;;
68886;SDS011;55925;51.764;6.402;2023-01-05T06:34:13;24.10;;;4.13;;
68886;SDS011;55925;51.764;6.402;2023-01-05T06:36:39;20.70;;;4.30;;
68886;SDS011;55925;51.764;6.402;2023-01-05T06:39:05;21.30;;;3.88;;
68886;SDS011;55925;51.764;6.402;2023-01-05T06:41:31;19.83;;;3.67;;
68886;SDS011;55925;51.764;6.402;2023-01-05T06:43:59;27.42;;;4.07;;
68886;SDS011;55925;51.764;6.402;2023-01-05T06:46:25;26.60;;;4.63;;
68886;SDS011;55925;51.764;6.402;2023-01-05T06:48:51;20.50;;;3.17;;
68886;SDS011;55925;51.764;6.402;2023-01-05T06:51:17;19.20;;;3.55;;
68886;SDS011;55925;51.764;6.402;2023-01-05T06:53:43;21.70;;;4.20;;
68886;SDS011;55925;51.764;6.402;2023-01-05T06:56:09;21.92;;;4.00;;
68886;SDS011;55925;51.764;6.402;2023-01-05T06:58:35;28.58;;;4.95;;
68886;SDS011;55925;51.764;6.402;2023-01-05T07:01:01;21.83;;;3.97;;
68886;SDS011;55925;51.764;6.402;2023-01-05T07:03:27;28.60;;;4.30;;
68886;SDS011;55925;51.764;6.402;2023-01-05T07:05:53;21.67;;;4.25;;
68886;SDS011;55925;51.764;6.402;2023-01-05T07:08:19;19.95;;;4.60;;
68886;SDS011;55925;51.764;6.402;2023-01-05T07:10:45;22.45;;;3.65;;
68886;SDS011;55925;51.764;6.402;2023-01-05T07:13:11;18.95;;;3.33;;
68886;SDS011;55925;51.764;6.402;2023-01-05T07:15:37;20.58;;;4.13;;
68886;SDS011;55925;51.764;6.402;2023-01-05T07:18:03;19.95;;;3.95;;
68886;SDS011;55925;51.764;6.402;2023-01-05T07:20:29;24.02;;;4.63;;
68886;SDS011;55925;51.764;6.402;2023-01-05T07:22:55;23.70;;;3.85;;
68886;SDS011;55925;51.764;6.402;2023-01-05T07:25:21;25.25;;;4.20;;
68886;SDS011;55925;51.764;6.402;2023-01-05T07:27:50;23.63;;;4.35;;
68886;SDS011;55925;51.764;6.402;2023-01-05T07:30:17;26.65;;;4.20;;
68886;SDS011;55925;51.764;6.402;2023-01-05T07:32:43;16.10;;;4.13;;
68886;SDS011;55925;51.764;6.402;2023-01-05T07:35:09;19.10;;;4.80;;
68886;SDS011;55925;51.764;6.402;2023-01-05T07:37:35;22.20;;;4.45;;
68886;SDS011;55925;51.764;6.402;2023-01-05T07:40:01;24.73;;;4.43;;
68886;SDS011;55925;51.764;6.402;2023-01-05T07:42:27;26.30;;;4.00;;
68886;SDS011;55925;51.764;6.402;2023-01-05T07:44:54;26.98;;;4.78;;
68886;SDS011;55925;51.764;6.402;2023-01-05T07:47:20;23.13;;;4.38;;
68886;SDS011;55925;51.764;6.402;2023-01-05T07:49:46;26.25;;;4.90;;
68886;SDS011;55925;51.764;6.402;2023-01-05T07:52:12;25.02;;;4.18;;
68886;SDS011;55925;51.764;6.402;2023-01-05T07:54:38;21.80;;;3.83;;
68886;SDS011;55925;51.764;6.402;2023-01-05T07:57:04;23.73;;;5.00;;
68886;SDS011;55925;51.764;6.402;2023-01-05T07:59:30;24.15;;;4.65;;
68886;SDS011;55925;51.764;6.402;2023-01-05T08:01:56;30.08;;;4.68;;
68886;SDS011;55925;51.764;6.402;2023-01-05T08:04:22;27.15;;;4.78;;
68886;SDS011;55925;51.764;6.402;2023-01-05T08:06:48;27.35;;;4.60;;
68886;SDS011;55925;51.764;6.402;2023-01-05T08:09:16;25.58;;;4.30;;
68886;SDS011;55925;51.764;6.402;2023-01-05T08:12:01;24.20;;;4.65;;
68886;SDS011;55925;51.764;6.402;2023-01-05T08:14:27;25.60;;;4.80;;
68886;SDS011;55925;51.764;6.402;2023-01-05T08:16:53;28.20;;;4.13;;
68886;SDS011;55925;51.764;6.402;2023-01-05T08:19:19;23.48;;;4.90;;
68886;SDS011;55925;51.764;6.402;2023-01-05T08:21:45;24.52;;;4.35;;
68886;SDS011;55925;51.764;6.402;2023-01-05T08:24:11;26.83;;;3.75;;
68886;SDS011;55925;51.764;6.402;2023-01-05T08:26:37;21.80;;;5.53;;
68886;SDS011;55925;51.764;6.402;2023-01-05T08:29:03;23.73;;;5.28;;
68886;SDS011;55925;51.764;6.402;2023-01-05T08:31:29;23.30;;;4.50;;
68886;SDS011;55925;51.764;6.402;2023-01-05T08:34:01;19.98;;;4.35;;
68886;SDS011;55925;51.764;6.402;2023-01-05T08:36:27;18.90;;;4.25;;
68886;SDS011;55925;51.764;6.402;2023-01-05T08:38:55;19.35;;;4.00;;
68886;SDS011;55925;51.764;6.402;2023-01-05T08:41:25;20.85;;;4.95;;
68886;SDS011;55925;51.764;6.402;2023-01-05T08:43:56;25.45;;;4.07;;
68886;SDS011;55925;51.764;6.402;2023-01-05T08:46:23;18.08;;;3.92;;
68886;SDS011;55925;51.764;6.402;2023-01-05T08:48:50;24.25;;;4.53;;
68886;SDS011;55925;51.764;6.402;2023-01-05T08:51:16;23.80;;;4.55;;
68886;SDS011;55925;51.764;6.402;2023-01-05T08:53:43;22.80;;;5.03;;
68886;SDS011;55925;51.764;6.402;2023-01-05T08:56:09;28.30;;;4.82;;
68886;SDS011;55925;51.764;6.402;2023-01-05T08:58:38;21.98;;;4.07;;
68886;SDS011;55925;51.764;6.402;2023-01-05T09:01:05;21.35;;;3.72;;
68886;SDS011;55925;51.764;6.402;2023-01-05T09:03:31;20.50;;;3.42;;
68886;SDS011;55925;51.764;6.402;2023-01-05T09:05:57;26.17;;;4.95;;
68886;SDS011;55925;51.764;6.402;2023-01-05T09:08:26;19.75;;;3.97;;
68886;SDS011;55925;51.764;6.402;2023-01-05T09:10:53;22.08;;;4.18;;
68886;SDS011;55925;51.764;6.402;2023-01-05T09:13:19;22.58;;;4.13;;
68886;SDS011;55925;51.764;6.402;2023-01-05T09:15:44;24.55;;;3.70;;
68886;SDS011;55925;51.764;6.402;2023-01-05T09:18:10;29.15;;;4.03;;
68886;SDS011;55925;51.764;6.402;2023-01-05T09:20:36;20.25;;;4.45;;
68886;SDS011;55925;51.764;6.402;2023-01-05T09:23:02;23.13;;;4.47;;
68886;SDS011;55925;51.764;6.402;2023-01-05T09:25:28;21.15;;;4.30;;
68886;SDS011;55925;51.764;6.402;2023-01-05T09:27:54;18.70;;;4.40;;
68886;SDS011;55925;51.764;6.402;2023-01-05T09:30:20;16.15;;;3.15;;
68886;SDS011;55925;51.764;6.402;2023-01-05T09:32:46;20.95;;;4.53;;
68886;SDS011;55925;51.764;6.402;2023-01-05T09:35:12;19.85;;;4.70;;
68886;SDS011;55925;51.764;6.402;2023-01-05T09:37:38;18.52;;;4.22;;
68886;SDS011;55925;51.764;6.402;2023-01-05T09:40:04;21.45;;;3.95;;
68886;SDS011;55925;51.764;6.402;2023-01-05T09:42:31;20.60;;;4.03;;
68886;SDS011;55925;51.764;6.402;2023-01-05T09:45:04;19.98;;;4.22;;
68886;SDS011;55925;51.764;6.402;2023-01-05T09:47:32;25.25;;;4.15;;
68886;SDS011;55925;51.764;6.402;2023-01-05T09:49:59;25.13;;;4.85;;
68886;SDS011;55925;51.764;6.402;2023-01-05T09:52:26;20.25;;;4.53;;
68886;SDS011;55925;51.764;6.402;2023-01-05T09:54:52;21.38;;;5.50;;
68886;SDS011;55925;51.764;6.402;2023-01-05T09:57:21;21.05;;;4.57;;
68886;SDS011;55925;51.764;6.402;2023-01-05T09:59:48;23.27;;;4.60;;
68886;SDS011;55925;51.764;6.402;2023-01-05T10:02:26;20.95;;;4.38;;
68886;SDS011;55925;51.764;6.402;2023-01-05T10:04:54;22.25;;;4.10;;
68886;SDS011;55925;51.764;6.402;2023-01-05T10:07:30;19.98;;;4.10;;
68886;SDS011;55925;51.764;6.402;2023-01-05T10:09:57;24.50;;;4.03;;
68886;SDS011;55925;51.764;6.402;2023-01-05T10:12:28;24.17;;;5.18;;
68886;SDS011;55925;51.764;6.402;2023-01-05T10:15:15;19.48;;;4.45;;
68886;SDS011;55925;51.764;6.402;2023-01-05T10:17:42;22.73;;;4.15;;
68886;SDS011;55925;51.764;6.402;2023-01-05T10:25:37;18.40;;;4.07;;
68886;SDS011;55925;51.764;6.402;2023-01-05T10:28:19;27.55;;;4.50;;
68886;SDS011;55925;51.764;6.402;2023-01-05T10:43:53;24.58;;;4.68;;
68886;SDS011;55925;51.764;6.402;2023-01-05T10:46:22;16.50;;;4.35;;
68886;SDS011;55925;51.764;6.402;2023-01-05T10:48:48;23.58;;;4.20;;
68886;SDS011;55925;51.764;6.402;2023-01-05T10:51:14;22.80;;;4.43;;
68886;SDS011;55925;51.764;6.402;2023-01-05T10:53:41;21.10;;;4.78;;
68886;SDS011;55925;51.764;6.402;2023-01-05T10:58:35;21.50;;;5.45;;
68886;SDS011;55925;51.764;6.402;2023-01-05T11:01:05;20.63;;;3.92;;
68886;SDS011;55925;51.764;6.402;2023-01-05T11:03:40;19.50;;;4.93;;
68886;SDS011;55925;51.764;6.402;2023-01-05T11:06:07;20.40;;;4.18;;
68886;SDS011;55925;51.764;6.402;2023-01-05T11:08:33;21.42;;;4.15;;
68886;SDS011;55925;51.764;6.402;2023-01-05T11:11:02;19.83;;;3.92;;
68886;SDS011;55925;51.764;6.402;2023-01-05T11:13:30;20.48;;;4.93;;
68886;SDS011;55925;51.764;6.402;2023-01-05T11:16:07;22.48;;;4.10;;
68886;SDS011;55925;51.764;6.402;2023-01-05T11:26:09;20.90;;;3.40;;
68886;SDS011;55925;51.764;6.402;2023-01-05T11:28:35;19.58;;;3.95;;
68886;SDS011;55925;51.764;6.402;2023-01-05T11:31:02;17.20;;;3.80;;
68886;SDS011;55925;51.764;6.402;2023-01-05T11:33:29;20.60;;;3.85;;
68886;SDS011;55925;51.764;6.402;2023-01-05T11:35:57;16.52;;;3.85;;
68886;SDS011;55925;51.764;6.402;2023-01-05T11:38:24;19.40;;;4.53;;
68886;SDS011;55925;51.764;6.402;2023-01-05T11:40:51;22.95;;;4.35;;
68886;SDS011;55925;51.764;6.402;2023-01-05T11:43:19;20.77;;;4.65;;
68886;SDS011;55925;51.764;6.402;2023-01-05T11:45:50;22.23;;;4.78;;
68886;SDS011;55925;51.764;6.402;2023-01-05T11:48:18;21.58;;;3.97;;
68886;SDS011;55925;51.764;6.402;2023-01-05T11:50:46;26.17;;;5.07;;
68886;SDS011;55925;51.764;6.402;2023-01-05T11:55:58;19.38;;;5.03;;
68886;SDS011;55925;51.764;6.402;2023-01-05T11:58:25;20.08;;;4.50;;
68886;SDS011;55925;51.764;6.402;2023-01-05T12:08:46;21.95;;;4.75;;
68886;SDS011;55925;51.764;6.402;2023-01-05T12:11:15;17.45;;;4.63;;
68886;SDS011;55925;51.764;6.402;2023-01-05T12:16:28;21.40;;;5.15;;
68886;SDS011;55925;51.764;6.402;2023-01-05T12:21:25;22.38;;;4.65;;
68886;SDS011;55925;51.764;6.402;2023-01-05T12:28:54;22.15;;;4.80;;
68886;SDS011;55925;51.764;6.402;2023-01-05T12:36:37;20.85;;;4.72;;
68886;SDS011;55925;51.764;6.402;2023-01-05T12:41:54;30.08;;;4.55;;
68886;SDS011;55925;51.764;6.402;2023-01-05T12:49:34;20.13;;;5.32;;
68886;SDS011;55925;51.764;6.402;2023-01-05T12:52:05;24.08;;;4.53;;
68886;SDS011;55925;51.764;6.402;2023-01-05T12:54:43;22.08;;;3.72;;
68886;SDS011;55925;51.764;6.402;2023-01-05T12:57:12;18.75;;;5.28;;
68886;SDS011;55925;51.764;6.402;2023-01-05T13:04:44;27.33;;;4.93;;
68886;SDS011;55925;51.764;6.402;2023-01-05T13:09:59;18.13;;;3.63;;
68886;SDS011;55925;51.764;6.402;2023-01-05T13:12:26;20.75;;;4.07;;
68886;SDS011;55925;51.764;6.402;2023-01-05T13:15:15;20.02;;;3.67;;
68886;SDS011;55925;51.764;6.402;2023-01-05T13:17:40;20.27;;;5.07;;
68886;SDS011;55925;51.764;6.402;2023-01-05T13:23:02;19.83;;;4.45;;
68886;SDS011;55925;51.764;6.402;2023-01-05T13:25:31;24.92;;;5.95;;
68886;SDS011;55925;51.764;6.402;2023-01-05T13:27:59;14.85;;;4.22;;
68886;SDS011;55925;51.764;6.402;2023-01-05T13:30:30;17.30;;;4.53;;
68886;SDS011;55925;51.764;6.402;2023-01-05T13:33:04;18.05;;;4.38;;
68886;SDS011;55925;51.764;6.402;2023-01-05T13:35:39;19.13;;;5.47;;
68886;SDS011;55925;51.764;6.402;2023-01-05T13:38:26;21.27;;;4.82;;
68886;SDS011;55925;51.764;6.402;2023-01-05T13:51:14;13.52;;;3.88;;
68886;SDS011;55925;51.764;6.402;2023-01-05T13:53:43;23.70;;;5.00;;
68886;SDS011;55925;51.764;6.402;2023-01-05T13:59:27;22.35;;;4.82;;
68886;SDS011;55925;51.764;6.402;2023-01-05T14:03:59;22.02;;;4.53;;
68886;SDS011;55925;51.764;6.402;2023-01-05T14:06:34;20.27;;;4.40;;
68886;SDS011;55925;51.764;6.402;2023-01-05T14:09:05;17.33;;;3.88;;
68886;SDS011;55925;51.764;6.402;2023-01-05T14:11:32;17.38;;;3.97;;
68886;SDS011;55925;51.764;6.402;2023-01-05T14:13:59;17.17;;;4.00;;
68886;SDS011;55925;51.764;6.402;2023-01-05T14:34:51;22.58;;;4.05;;
68886;SDS011;55925;51.764;6.402;2023-01-05T14:37:40;29.20;;;5.10;;
68886;SDS011;55925;51.764;6.402;2023-01-05T14:40:37;23.13;;;4.65;;
68886;SDS011;55925;51.764;6.402;2023-01-05T14:42:56;19.45;;;4.65;;
68886;SDS011;55925;51.764;6.402;2023-01-05T14:45:26;19.08;;;4.57;;
68886;SDS011;55925;51.764;6.402;2023-01-05T14:47:54;22.83;;;4.85;;
68886;SDS011;55925;51.764;6.402;2023-01-05T14:52:57;19.63;;;4.65;;
68886;SDS011;55925;51.764;6.402;2023-01-05T14:57:50;19.13;;;5.00;;
68886;SDS011;55925;51.764;6.402;2023-01-05T15:00:20;20.13;;;4.20;;
68886;SDS011;55925;51.764;6.402;2023-01-05T15:03:00;17.85;;;4.30;;
68886;SDS011;55925;51.764;6.402;2023-01-05T15:05:28;22.77;;;4.15;;
68886;SDS011;55925;51.764;6.402;2023-01-05T15:15:44;20.80;;;4.47;;
68886;SDS011;55925;51.764;6.402;2023-01-05T15:18:26;17.58;;;4.30;;
68886;SDS011;55925;51.764;6.402;2023-01-05T15:29:23;16.58;;;4.00;;
68886;SDS011;55925;51.764;6.402;2023-01-05T15:31:56;17.42;;;4.40;;
68886;SDS011;55925;51.764;6.402;2023-01-05T15:34:28;15.82;;;4.22;;
68886;SDS011;55925;51.764;6.402;2023-01-05T15:37:03;17.13;;;3.90;;
68886;SDS011;55925;51.764;6.402;2023-01-05T15:41:59;24.38;;;4.50;;
68886;SDS011;55925;51.764;6.402;2023-01-05T15:44:29;19.75;;;5.32;;
68886;SDS011;55925;51.764;6.402;2023-01-05T15:46:55;22.92;;;5.75;;
68886;SDS011;55925;51.764;6.402;2023-01-05T15:49:22;18.67;;;5.35;;
68886;SDS011;55925;51.764;6.402;2023-01-05T15:51:52;24.42;;;5.93;;
68886;SDS011;55925;51.764;6.402;2023-01-05T15:54:20;18.67;;;5.85;;
68886;SDS011;55925;51.764;6.402;2023-01-05T15:56:46;20.70;;;6.22;;
68886;SDS011;55925;51.764;6.402;2023-01-05T16:01:44;20.33;;;6.85;;
68886;SDS011;55925;51.764;6.402;2023-01-05T16:04:11;24.48;;;8.05;;
68886;SDS011;55925;51.764;6.402;2023-01-05T16:06:38;26.30;;;8.18;;
68886;SDS011;55925;51.764;6.402;2023-01-05T16:11:50;30.05;;;8.38;;
68886;SDS011;55925;51.764;6.402;2023-01-05T16:14:22;28.20;;;10.15;;
68886;SDS011;55925;51.764;6.402;2023-01-05T16:16:54;30.95;;;10.15;;
68886;SDS011;55925;51.764;6.402;2023-01-05T16:24:36;35.78;;;12.00;;
68886;SDS011;55925;51.764;6.402;2023-01-05T16:27:03;28.17;;;9.85;;
68886;SDS011;55925;51.764;6.402;2023-01-05T16:29:34;37.50;;;10.85;;
68886;SDS011;55925;51.764;6.402;2023-01-05T16:32:02;39.78;;;10.52;;
68886;SDS011;55925;51.764;6.402;2023-01-05T16:34:28;43.00;;;12.50;;
68886;SDS011;55925;51.764;6.402;2023-01-05T16:37:00;30.45;;;10.90;;
68886;SDS011;55925;51.764;6.402;2023-01-05T16:39:30;33.83;;;10.35;;
68886;SDS011;55925;51.764;6.402;2023-01-05T16:47:29;32.60;;;11.30;;
68886;SDS011;55925;51.764;6.402;2023-01-05T16:49:56;38.25;;;10.60;;
68886;SDS011;55925;51.764;6.402;2023-01-05T16:52:23;39.70;;;10.18;;
68886;SDS011;55925;51.764;6.402;2023-01-05T16:54:50;31.80;;;9.93;;
68886;SDS011;55925;51.764;6.402;2023-01-05T16:57:41;31.63;;;10.38;;
68886;SDS011;55925;51.764;6.402;2023-01-05T17:02:53;35.65;;;10.02;;
68886;SDS011;55925;51.764;6.402;2023-01-05T17:05:20;35.25;;;8.25;;
68886;SDS011;55925;51.764;6.402;2023-01-05T17:07:57;29.40;;;8.27;;
68886;SDS011;55925;51.764;6.402;2023-01-05T17:10:26;23.92;;;7.85;;
68886;SDS011;55925;51.764;6.402;2023-01-05T17:12:55;32.60;;;8.13;;
68886;SDS011;55925;51.764;6.402;2023-01-05T17:15:23;26.40;;;6.68;;
68886;SDS011;55925;51.764;6.402;2023-01-05T17:17:50;28.83;;;6.10;;
68886;SDS011;55925;51.764;6.402;2023-01-05T17:20:19;26.85;;;7.47;;
68886;SDS011;55925;51.764;6.402;2023-01-05T17:22:45;24.88;;;8.73;;
68886;SDS011;55925;51.764;6.402;2023-01-05T17:25:11;27.60;;;7.97;;
68886;SDS011;55925;51.764;6.402;2023-01-05T17:27:38;21.95;;;6.22;;
68886;SDS011;55925;51.764;6.402;2023-01-05T17:30:11;26.35;;;7.07;;
68886;SDS011;55925;51.764;6.402;2023-01-05T17:32:37;30.50;;;7.00;;
68886;SDS011;55925;51.764;6.402;2023-01-05T17:35:03;26.00;;;6.43;;
68886;SDS011;55925;51.764;6.402;2023-01-05T17:37:29;24.13;;;6.93;;
68886;SDS011;55925;51.764;6.402;2023-01-05T17:39:55;38.05;;;6.80;;
68886;SDS011;55925;51.764;6.402;2023-01-05T17:42:21;36.60;;;8.25;;